Terminal Aerodrome Forecast
Issued by NWS

Home | Current Version | Previous Version | Text Only | Print | Product List | Glossary On
Versions: 1 2 3 4 5 6 7 8 9 10 11 12 13 14 15 16 17 18 19 20 21 22 23
000
FTUS46 KPDT 281100
TAFPSC
TAF
KPSC 281139Z 2812/2912 36004KT 4SM BR OVC002
     FM281900 33003KT 5SM BR OVC010
     FM290000 30002KT 4SM BR OVC007=

USA.gov is the U.S. government's official web portal to all federal, state and local government web resources and services.